Time,TemperatureF,DewpointF,PressureIn,WindDirection,WindDirectionDegrees,WindSpeedMPH,WindSpeedGustMPH,Humidity,HourlyPrecipIn,Conditions,Clouds,dailyrainin,SoftwareType,DateUTC
2013-06-21 00:08:00,72.7,65.0,30.10,ESE,120,0.0,-999.0,76,-99.99,,,0.00,weatherlink.com 1.10,2013-06-21 04:08:00,
2013-06-21 00:24:00,72.5,65.0,30.10,ESE,121,0.0,-999.0,76,-99.99,,,0.00,weatherlink.com 1.10,2013-06-21 04:24:00,
2013-06-21 00:39:00,72.4,65.0,30.11,ESE,121,0.0,-999.0,77,-99.99,,,0.00,weatherlink.com 1.10,2013-06-21 04:39:00,
2013-06-21 00:54:00,71.6,64.0,30.11,ESE,121,0.0,-999.0,78,-99.99,,,0.00,weatherlink.com 1.10,2013-06-21 04:54:00,
2013-06-21 01:09:00,71.4,65.0,30.11,ESE,120,0.0,-999.0,79,-99.99,,,0.00,weatherlink.com 1.10,2013-06-21 05:09:00,
2013-06-21 01:24:00,70.7,64.0,30.10,ESE,120,0.0,-999.0,80,-99.99,,,0.00,weatherlink.com 1.10,2013-06-21 05:24:00,
2013-06-21 01:39:00,70.1,64.0,30.10,ESE,120,0.0,-999.0,81,-99.99,,,0.00,weatherlink.com 1.10,2013-06-21 05:39:00,
2013-06-21 01:54:00,70.3,64.0,30.10,ESE,121,0.0,-999.0,80,-99.99,,,0.00,weatherlink.com 1.10,2013-06-21 05:54:00,
2013-06-21 02:09:00,70.0,64.0,30.11,ESE,120,0.0,-999.0,80,-99.99,,,0.00,weatherlink.com 1.10,2013-06-21 06:09:00,
2013-06-21 02:24:00,69.7,64.0,30.10,ESE,121,0.0,-999.0,81,-99.99,,,0.00,weatherlink.com 1.10,2013-06-21 06:24:00,
2013-06-21 02:39:00,69.2,63.0,30.10,ESE,120,0.0,-999.0,81,-99.99,,,0.00,weatherlink.com 1.10,2013-06-21 06:39:00,
2013-06-21 02:54:00,68.5,63.0,30.09,ESE,120,0.0,-999.0,82,-99.99,,,0.00,weatherlink.com 1.10,2013-06-21 06:54:00,
2013-06-21 03:10:00,68.0,63.0,30.09,ESE,120,0.0,-999.0,83,-99.99,,,0.00,weatherlink.com 1.10,2013-06-21 07:10:00,
2013-06-21 03:25:00,67.5,63.0,30.09,ESE,120,0.0,-999.0,84,-99.99,,,0.00,weatherlink.com 1.10,2013-06-21 07:25:00,
2013-06-21 03:40:00,67.1,62.0,30.09,ESE,120,0.0,-999.0,84,-99.99,,,0.00,weatherlink.com 1.10,2013-06-21 07:40:00,
2013-06-21 03:55:00,67.3,62.0,30.09,ESE,120,0.0,-999.0,83,-99.99,,,0.00,weatherlink.com 1.10,2013-06-21 07:55:00,
2013-06-21 04:10:00,67.3,62.0,30.09,ESE,120,0.0,-999.0,82,-99.99,,,0.00,weatherlink.com 1.10,2013-06-21 08:10:00,
2013-06-21 04:25:00,67.1,61.0,30.09,ESE,121,0.0,-999.0,82,-99.99,,,0.00,weatherlink.com 1.10,2013-06-21 08:25:00,
2013-06-21 04:40:00,66.6,61.0,30.09,ESE,120,0.0,-999.0,83,-99.99,,,0.00,weatherlink.com 1.10,2013-06-21 08:40:00,
2013-06-21 04:55:00,66.3,61.0,30.09,ESE,120,0.0,-999.0,83,-99.99,,,0.00,weatherlink.com 1.10,2013-06-21 08:55:00,
2013-06-21 05:10:00,65.9,61.0,30.09,ESE,120,0.0,-999.0,84,-99.99,,,0.00,weatherlink.com 1.10,2013-06-21 09:10:00,
2013-06-21 05:25:00,65.5,61.0,30.09,ESE,121,0.0,-999.0,84,-99.99,,,0.00,weatherlink.com 1.10,2013-06-21 09:25:00,
2013-06-21 05:40:00,65.6,60.0,30.09,ESE,121,0.0,-999.0,83,-99.99,,,0.00,weatherlink.com 1.10,2013-06-21 09:40:00,
2013-06-21 05:56:00,65.4,60.0,30.09,ESE,122,0.0,-999.0,83,-99.99,,,0.00,weatherlink.com 1.10,2013-06-21 09:56:00,
2013-06-21 06:11:00,65.5,60.0,30.10,SE,126,0.0,-999.0,82,-99.99,,,0.00,weatherlink.com 1.10,2013-06-21 10:11:00,
2013-06-21 06:26:00,65.9,60.0,30.10,SE,126,0.0,-999.0,80,-99.99,,,0.00,weatherlink.com 1.10,2013-06-21 10:26:00,
2013-06-21 06:41:00,65.8,60.0,30.09,SE,126,0.0,-999.0,80,-99.99,,,0.00,weatherlink.com 1.10,2013-06-21 10:41:00,
2013-06-21 06:56:00,65.9,60.0,30.09,SE,132,0.0,-999.0,80,-99.99,,,0.00,weatherlink.com 1.10,2013-06-21 10:56:00,
2013-06-21 07:11:00,66.8,60.0,30.09,SE,136,0.0,-999.0,79,-99.99,,,0.00,weatherlink.com 1.10,2013-06-21 11:11:00,
2013-06-21 07:26:00,67.8,60.0,30.09,South,184,0.0,-999.0,77,-99.99,,,0.00,weatherlink.com 1.10,2013-06-21 11:26:00,
2013-06-21 07:41:00,69.2,61.0,30.11,SSW,200,0.0,-999.0,74,-99.99,,,0.00,weatherlink.com 1.10,2013-06-21 11:41:00,
2013-06-21 07:56:00,70.7,62.0,30.11,SSW,202,0.0,-999.0,73,-99.99,,,0.00,weatherlink.com 1.10,2013-06-21 11:56:00,
2013-06-21 08:11:00,72.3,62.0,30.11,SSW,195,0.0,-999.0,71,-99.99,,,0.00,weatherlink.com 1.10,2013-06-21 12:11:00,
2013-06-21 08:26:00,73.3,62.0,30.13,SSW,211,1.0,-999.0,67,-99.99,,,0.00,weatherlink.com 1.10,2013-06-21 12:26:00,
2013-06-21 08:41:00,74.5,62.0,30.11,SSW,206,0.0,-999.0,65,-99.99,,,0.00,weatherlink.com 1.10,2013-06-21 12:41:00,
2013-06-21 08:57:00,76.2,63.0,30.09,SSW,192,0.0,-999.0,63,-99.99,,,0.00,weatherlink.com 1.10,2013-06-21 12:57:00,
2013-06-21 09:12:00,77.3,63.0,30.09,South,188,0.0,-999.0,62,-99.99,,,0.00,weatherlink.com 1.10,2013-06-21 13:12:00,
2013-06-21 09:27:00,78.1,64.0,30.09,SSW,200,1.0,-999.0,62,-99.99,,,0.00,weatherlink.com 1.10,2013-06-21 13:27:00,
2013-06-21 09:42:00,78.9,64.0,30.10,SSW,192,0.0,-999.0,60,-99.99,,,0.00,weatherlink.com 1.10,2013-06-21 13:42:00,
2013-06-21 09:57:00,79.4,64.0,30.11,South,170,4.0,-999.0,59,-99.99,,,0.00,weatherlink.com 1.10,2013-06-21 13:57:00,
2013-06-21 10:12:00,80.6,64.0,30.10,SSE,150,1.0,-999.0,58,-99.99,,,0.00,weatherlink.com 1.10,2013-06-21 14:12:00,
2013-06-21 10:27:00,81.4,64.0,30.10,SSW,207,0.0,-999.0,56,-99.99,,,0.00,weatherlink.com 1.10,2013-06-21 14:27:00,
2013-06-21 10:42:00,82.3,65.0,30.11,South,187,2.0,-999.0,56,-99.99,,,0.00,weatherlink.com 1.10,2013-06-21 14:42:00,
2013-06-21 10:57:00,82.5,65.0,30.10,SSW,201,0.0,-999.0,55,-99.99,,,0.00,weatherlink.com 1.10,2013-06-21 14:57:00,
2013-06-21 11:13:00,83.1,65.0,30.11,South,178,0.0,-999.0,55,-99.99,,,0.00,weatherlink.com 1.10,2013-06-21 15:13:00,
2013-06-21 11:28:00,83.9,65.0,30.12,South,181,0.0,-999.0,54,-99.99,,,0.00,weatherlink.com 1.10,2013-06-21 15:28:00,
2013-06-21 11:43:00,84.2,65.0,30.11,South,184,0.0,-999.0,53,-99.99,,,0.00,weatherlink.com 1.10,2013-06-21 15:43:00,
2013-06-21 11:58:00,84.7,68.0,30.10,South,175,0.0,-999.0,58,-99.99,,,0.00,weatherlink.com 1.10,2013-06-21 15:58:00,
2013-06-21 12:13:00,85.4,66.0,30.10,SW,231,1.0,-999.0,52,-99.99,,,0.00,weatherlink.com 1.10,2013-06-21 16:13:00,
2013-06-21 12:28:00,85.0,64.0,30.09,SW,215,9.0,-999.0,50,-99.99,,,0.00,weatherlink.com 1.10,2013-06-21 16:28:00,
2013-06-21 12:43:00,85.2,64.0,30.09,SSE,161,0.0,-999.0,50,-99.99,,,0.00,weatherlink.com 1.10,2013-06-21 16:43:00,
2013-06-21 12:58:00,85.9,65.0,30.09,SW,217,0.0,-999.0,49,-99.99,,,0.00,weatherlink.com 1.10,2013-06-21 16:58:00,
2013-06-21 13:28:00,86.9,64.0,30.09,South,171,1.0,-999.0,47,-99.99,,,0.00,weatherlink.com 1.10,2013-06-21 17:28:00,
2013-06-21 13:59:00,87.2,66.0,30.09,South,176,0.0,-999.0,49,-99.99,,,0.00,weatherlink.com 1.10,2013-06-21 17:59:00,
2013-06-21 14:14:00,87.2,65.0,30.09,SW,221,0.0,-999.0,47,-99.99,,,0.00,weatherlink.com 1.10,2013-06-21 18:14:00,
2013-06-21 14:29:00,87.4,61.0,30.09,SSW,197,0.0,-999.0,41,-99.99,,,0.00,weatherlink.com 1.10,2013-06-21 18:29:00,
2013-06-21 14:44:00,87.0,63.0,30.09,South,184,0.0,-999.0,44,-99.99,,,0.00,weatherlink.com 1.10,2013-06-21 18:44:00,
2013-06-21 15:00:00,87.7,63.0,30.09,SSE,152,0.0,-999.0,44,-99.99,,,0.00,weatherlink.com 1.10,2013-06-21 19:00:00,
2013-06-21 15:14:00,87.8,63.0,30.07,SSW,194,0.0,-999.0,44,-99.99,,,0.00,weatherlink.com 1.10,2013-06-21 19:14:00,
2013-06-21 15:29:00,87.6,60.0,30.07,SSE,161,0.0,-999.0,40,-99.99,,,0.00,weatherlink.com 1.10,2013-06-21 19:29:00,
2013-06-21 15:44:00,88.2,61.0,30.07,SSE,164,4.0,-999.0,40,-99.99,,,0.00,weatherlink.com 1.10,2013-06-21 19:44:00,
2013-06-21 15:59:00,87.6,63.0,30.06,SSW,201,0.0,-999.0,44,-99.99,,,0.00,weatherlink.com 1.10,2013-06-21 19:59:00,
2013-06-21 16:14:00,87.5,61.0,30.05,SSE,164,0.0,-999.0,41,-99.99,,,0.00,weatherlink.com 1.10,2013-06-21 20:14:00,
2013-06-21 16:29:00,87.0,61.0,30.06,SW,235,3.0,-999.0,41,-99.99,,,0.00,weatherlink.com 1.10,2013-06-21 20:29:00,
2013-06-21 17:00:00,86.8,62.0,30.06,SSW,211,0.0,-999.0,44,-99.99,,,0.00,weatherlink.com 1.10,2013-06-21 21:00:00,
2013-06-21 17:15:00,85.4,62.0,30.06,West,277,4.0,-999.0,45,-99.99,,,0.00,weatherlink.com 1.10,2013-06-21 21:15:00,
2013-06-21 17:30:00,79.5,65.0,30.07,WNW,293,3.0,-999.0,62,-99.99,,,0.00,weatherlink.com 1.10,2013-06-21 21:30:00,
2013-06-21 17:45:00,77.4,66.0,30.06,West,277,3.0,-999.0,68,-99.99,,,0.00,weatherlink.com 1.10,2013-06-21 21:45:00,
2013-06-21 18:00:00,76.2,67.0,30.04,SW,236,4.0,-999.0,72,-99.99,,,0.00,weatherlink.com 1.10,2013-06-21 22:00:00,
2013-06-21 18:15:00,75.7,69.0,29.98,SSE,150,0.0,-999.0,79,-99.99,,,0.00,weatherlink.com 1.10,2013-06-21 22:15:00,
2013-06-21 18:30:00,74.2,68.0,29.93,SE,126,5.0,-999.0,82,-99.99,,,0.00,weatherlink.com 1.10,2013-06-21 22:30:00,
2013-06-21 18:45:00,73.6,67.0,29.92,SE,131,0.0,-999.0,81,-99.99,,,0.00,weatherlink.com 1.10,2013-06-21 22:45:00,
2013-06-21 19:00:00,74.8,67.0,29.95,South,170,0.0,-999.0,76,-99.99,,,0.00,weatherlink.com 1.10,2013-06-21 23:00:00,
2013-06-21 19:15:00,75.6,66.0,29.94,SE,127,0.0,-999.0,73,-99.99,,,0.00,weatherlink.com 1.10,2013-06-21 23:15:00,
2013-06-21 19:31:00,76.2,66.0,29.96,SSE,159,1.0,-999.0,70,-99.99,,,0.00,weatherlink.com 1.10,2013-06-21 23:31:00,
2013-06-21 19:46:00,77.2,65.0,29.97,South,184,0.0,-999.0,67,-99.99,,,0.00,weatherlink.com 1.10,2013-06-21 23:46:00,
2013-06-21 20:01:00,77.2,65.0,29.97,South,184,0.0,-999.0,67,-99.99,,,0.00,weatherlink.com 1.10,2013-06-22 00:01:00,
2013-06-21 20:16:00,77.1,66.0,29.97,South,178,0.0,-999.0,68,-99.99,,,0.00,weatherlink.com 1.10,2013-06-22 00:16:00,
2013-06-21 20:31:00,76.8,66.0,29.97,South,178,0.0,-999.0,69,-99.99,,,0.00,weatherlink.com 1.10,2013-06-22 00:31:00,
2013-06-21 20:46:00,76.2,66.0,29.96,South,178,0.0,-999.0,70,-99.99,,,0.00,weatherlink.com 1.10,2013-06-22 00:46:00,
2013-06-21 21:01:00,76.0,66.0,29.97,South,177,0.0,-999.0,71,-99.99,,,0.00,weatherlink.com 1.10,2013-06-22 01:01:00,
2013-06-21 21:16:00,75.4,67.0,29.97,South,177,0.0,-999.0,74,-99.99,,,0.00,weatherlink.com 1.10,2013-06-22 01:16:00,
2013-06-21 21:31:00,74.8,66.0,29.97,South,178,0.0,-999.0,75,-99.99,,,0.00,weatherlink.com 1.10,2013-06-22 01:31:00,
2013-06-21 21:46:00,74.3,66.0,29.98,South,178,0.0,-999.0,76,-99.99,,,0.00,weatherlink.com 1.10,2013-06-22 01:46:00,
2013-06-21 22:01:00,73.5,66.0,30.00,South,178,0.0,-999.0,78,-99.99,,,0.00,weatherlink.com 1.10,2013-06-22 02:01:00,
2013-06-21 22:16:00,73.0,66.0,30.01,South,178,0.0,-999.0,79,-99.99,,,0.00,weatherlink.com 1.10,2013-06-22 02:16:00,
2013-06-21 22:31:00,72.6,67.0,30.02,SSW,197,0.0,-999.0,81,-99.99,,,0.00,weatherlink.com 1.10,2013-06-22 02:31:00,
2013-06-21 22:47:00,72.3,66.0,30.03,SSW,197,0.0,-999.0,81,-99.99,,,0.00,weatherlink.com 1.10,2013-06-22 02:47:00,
2013-06-21 23:02:00,72.0,66.0,30.03,SSW,198,0.0,-999.0,81,-99.99,,,0.00,weatherlink.com 1.10,2013-06-22 03:02:00,
2013-06-21 23:17:00,71.2,66.0,30.03,SSW,198,0.0,-999.0,82,-99.99,,,0.00,weatherlink.com 1.10,2013-06-22 03:17:00,
2013-06-21 23:32:00,70.5,65.0,30.04,SSW,197,0.0,-999.0,83,-99.99,,,0.00,weatherlink.com 1.10,2013-06-22 03:32:00,
2013-06-21 23:47:00,70.3,65.0,30.04,SSW,197,0.0,-999.0,83,-99.99,,,0.00,weatherlink.com 1.10,2013-06-22 03:47:00,